Bookmark and Share
Track history (hours):
 

Caribe Navigator

Last reported at 2014-Apr-14 10:31 UTC. Time now 2014-Apr-18 10:50 UTC.
Position N 25°26' W 080°02'.

Length 100 m; draft 5.4 m.

Type: Cargo ship. MMSI: 305289000.

NotesDate/timePositionNaut miles runAvg speedWind from/ knotsBaromVisibWave heightAir tempDewpointWater temp
2014-Apr-14 10:31N 25°26' W 080°02'1112.0
2014-Apr-14 09:34N 25°38' W 080°02'1312.8
2014-Apr-14 08:33N 25°51' W 080°02'1313.1
2014-Apr-14 07:33N 26°04' W 080°05'3 2.9
2014-Apr-14 06:32N 26°05' W 080°07'3 0.4
2014-Apr-13 22:33N 26°05' W 080°04'2 1.6
2014-Apr-13 21:33N 26°07' W 080°04'2 2.5
2014-Apr-13 20:33N 26°04' W 080°04'1 1.4
2014-Apr-13 19:33N 26°03' W 080°04'2 2.2
2014-Apr-13 18:33N 26°04' W 080°02'2 2.3
2014-Apr-13 17:33N 26°05' W 079°60'4 4.1
2014-Apr-13 16:33N 26°02' W 080°03'4 3.6
2014-Apr-13 15:33N 25°59' W 080°03'6 5.5
2014-Apr-13 14:33N 25°53' W 080°02'6 6.2
2014-Apr-13 13:33N 25°47' W 080°02'6 6.1
2014-Apr-13 12:33N 25°41' W 080°01'6 6.3
2014-Apr-13 11:33N 25°35' W 080°01'  
2014-Apr-05 11:17N 25°25' W 080°02'7 9.9
2014-Apr-05 10:33N 25°33' W 080°02'1010.0
2014-Apr-05 09:34N 25°43' W 080°01'9 8.6
2014-Apr-05 08:34N 25°51' W 080°03'1111.1
2014-Apr-05 07:33N 26°02' W 080°04'4 3.8
2014-Apr-05 06:26N 26°05' W 080°07'0 0.0
2014-Apr-05 05:26N 26°05' W 080°07'0 0.0
2014-Apr-05 04:26N 26°05' W 080°07'0 0.0
2014-Apr-05 03:26N 26°05' W 080°07'0 0.0
2014-Apr-05 02:26N 26°05' W 080°07'0 0.0
2014-Apr-05 01:29N 26°05' W 080°07'0 0.0
2014-Apr-05 00:29N 26°05' W 080°07'0 0.0
2014-Apr-04 23:29N 26°05' W 080°07'0 0.0
2014-Apr-04 22:29N 26°05' W 080°07'0 0.0
2014-Apr-04 21:29N 26°05' W 080°07'0 0.0
2014-Apr-04 20:32N 26°05' W 080°07'0 0.0
2014-Apr-04 19:32N 26°05' W 080°07'0 0.0
2014-Apr-04 18:32N 26°05' W 080°07'0 0.0
2014-Apr-04 17:32N 26°05' W 080°07'0 0.0
2014-Apr-04 16:33N 26°05' W 080°07'1010.1
2014-Apr-04 15:34N 25°56' W 080°03'1716.6
2014-Apr-04 14:34N 25°40' W 080°00'  

Dump ship's entire track history

sailing weather and tide predictions

Caribe Navigator — V2PW6 — position and weather